KPDT/PDT METAR and TAF weather

Enter ICAO airport designator
Station Type Date Time Source
KPDT METAR 2021/05/15 22:53 UTC NOAA

KPDT 152253Z 02010G21KT 10SM CLR 27/M01 A2992 RMK AO2 SLP119 T02721006


Station Type Date Time Source
KPDT Decoded METAR 2021/05/15 22:53 UTC NOAA

PENDLETON MUNICIPAL AIRPORT, OR, United States (KPDT) 45-70N 118-83W 458M
May 15, 2021 - 06:53 PM EDT / 2021.05.15 2253 UTC
Wind: from the NNE (020 degrees) at 12 MPH (10 KT) gusting to 24 MPH (21 KT):0
Visibility: 10 mile(s):0
Sky conditions: clear
Temperature: 81.0 F (27.2 C)
Dew Point: 30.9 F (-0.6 C)
Relative Humidity: 16%
Pressure (altimeter): 29.92 in. Hg (1013 hPa)
ob: KPDT 152253Z 02010G21KT 10SM CLR 27/M01 A2992 RMK AO2 SLP119 T02721006
cycle: 23

Station Type Date Time Source
KPDT TAF 2021/05/15 18:22 UTC NOAA

TAF KPDT 151720Z 1518/1618 33009KT P6SM SKC
FM160400 13007KT P6SM SKC
FM161700 29011G19KT P6SM SCT250

Example: see airport list